createdAt,value
2019-02-09T00:00:31.947Z,99.90
2019-02-09T00:05:28.160Z,99.90
2019-02-09T00:10:23.360Z,99.90
2019-02-09T00:15:19.212Z,99.90
2019-02-09T00:20:16.741Z,99.90
2019-02-09T00:25:16.043Z,99.90
2019-02-09T00:30:13.223Z,99.90
2019-02-09T00:35:10.969Z,99.90
2019-02-09T00:40:08.220Z,99.90
2019-02-09T00:45:06.330Z,99.90
2019-02-09T00:49:59.760Z,99.90
2019-02-09T00:54:55.229Z,99.90
2019-02-09T00:59:54.218Z,99.90
2019-02-09T01:04:47.991Z,99.90
2019-02-09T01:09:42.310Z,99.90
2019-02-09T01:14:37.236Z,99.90
2019-02-09T01:19:31.831Z,99.90
2019-02-09T01:24:26.038Z,99.90
2019-02-09T01:29:22.222Z,99.90
2019-02-09T01:34:17.905Z,99.90
2019-02-09T01:39:13.537Z,99.90
2019-02-09T01:44:10.075Z,99.90
2019-02-09T01:49:07.975Z,99.90
2019-02-09T01:54:03.659Z,99.90
2019-02-09T01:58:58.095Z,99.90
2019-02-09T02:03:55.031Z,99.90
2019-02-09T02:08:51.483Z,99.90
2019-02-09T02:13:47.001Z,99.90
2019-02-09T02:18:42.419Z,99.90
2019-02-09T02:23:36.603Z,99.90
2019-02-09T02:28:31.170Z,99.90
2019-02-09T02:33:26.512Z,99.90
2019-02-09T02:38:21.374Z,99.90
2019-02-09T02:43:15.607Z,99.90
2019-02-09T02:48:09.905Z,99.90
2019-02-09T02:53:06.595Z,99.90
2019-02-09T02:58:01.780Z,99.90
2019-02-09T03:02:57.617Z,99.90
2019-02-09T03:07:54.221Z,99.90
2019-02-09T03:12:49.405Z,99.90
2019-02-09T03:17:44.313Z,99.90
2019-02-09T03:22:40.870Z,99.90
2019-02-09T03:27:35.358Z,99.90
2019-02-09T03:32:31.038Z,99.90
2019-02-09T03:37:26.062Z,99.90
2019-02-09T03:42:21.707Z,99.90
2019-02-09T03:52:12.913Z,99.90
2019-02-09T03:57:09.571Z,99.90
2019-02-09T04:02:05.074Z,99.90
2019-02-09T04:11:59.107Z,99.90
2019-02-09T04:16:54.531Z,99.90
2019-02-09T04:21:49.291Z,99.90
2019-02-09T04:26:44.578Z,99.90
2019-02-09T04:31:39.815Z,99.90
2019-02-09T04:36:35.363Z,99.90
2019-02-09T04:41:29.622Z,99.90
2019-02-09T04:46:24.534Z,99.90
2019-02-09T04:51:19.623Z,99.90
2019-02-09T04:56:18.998Z,99.90
2019-02-09T05:01:14.270Z,99.90
2019-02-09T05:06:08.894Z,99.90
2019-02-09T05:11:06.479Z,99.90
2019-02-09T05:16:02.239Z,99.90
2019-02-09T05:20:57.285Z,99.90
2019-02-09T05:25:52.013Z,99.90
2019-02-09T05:30:49.251Z,99.90
2019-02-09T05:35:43.804Z,99.90
2019-02-09T05:40:38.453Z,99.90
2019-02-09T05:45:34.202Z,99.90
2019-02-09T05:50:30.419Z,99.90
2019-02-09T05:55:26.508Z,99.90
2019-02-09T06:00:31.273Z,99.90
2019-02-09T06:05:25.367Z,99.90
2019-02-09T06:10:24.460Z,99.90
2019-02-09T06:15:28.417Z,99.90
2019-02-09T06:20:29.667Z,99.90
2019-02-09T06:25:25.448Z,99.90
2019-02-09T06:30:22.175Z,99.90
2019-02-09T06:35:16.478Z,99.90
2019-02-09T06:40:13.551Z,99.90
2019-02-09T06:45:13.728Z,99.90
2019-02-09T06:50:14.577Z,99.90
2019-02-09T06:55:12.126Z,99.90
2019-02-09T07:00:10.807Z,99.90
2019-02-09T07:05:09.863Z,99.90
2019-02-09T07:10:06.356Z,99.90
2019-02-09T07:15:02.126Z,99.90
2019-02-09T07:19:56.284Z,99.90
2019-02-09T07:24:51.177Z,99.90
2019-02-09T07:29:46.444Z,99.90
2019-02-09T07:34:41.121Z,99.90
2019-02-09T07:39:41.125Z,99.90
2019-02-09T07:44:35.042Z,99.90
2019-02-09T07:49:29.361Z,99.90
2019-02-09T07:54:24.011Z,99.90
2019-02-09T07:59:19.686Z,99.90
2019-02-09T08:04:14.660Z,99.90
2019-02-09T08:09:14.913Z,99.90
2019-02-09T08:14:09.256Z,99.90
2019-02-09T08:19:05.880Z,99.90
2019-02-09T08:24:02.963Z,99.90
2019-02-09T08:29:03.238Z,99.90
2019-02-09T08:33:57.253Z,99.90
2019-02-09T08:38:51.387Z,99.90
2019-02-09T08:43:51.734Z,99.90
2019-02-09T08:48:46.028Z,99.90
2019-02-09T08:53:40.153Z,99.90
2019-02-09T08:58:35.859Z,99.90
2019-02-09T09:03:33.049Z,99.90
2019-02-09T09:08:32.352Z,99.90
2019-02-09T09:13:26.292Z,99.90
2019-02-09T09:18:23.009Z,99.90
2019-02-09T09:23:18.929Z,93.00
2019-02-09T09:28:12.978Z,86.30
2019-02-09T09:33:08.956Z,90.10
2019-02-09T09:38:03.461Z,92.90
2019-02-09T09:42:58.273Z,92.30
2019-02-09T09:47:58.106Z,79.00
2019-02-09T09:52:54.105Z,67.70
2019-02-09T09:57:47.962Z,60.40
2019-02-09T10:02:42.303Z,59.20
2019-02-09T10:07:40.819Z,58.00
2019-02-09T10:12:34.812Z,56.70
2019-02-09T10:17:29.069Z,56.10
2019-02-09T10:22:23.637Z,56.80
2019-02-09T10:27:17.647Z,54.90
2019-02-09T10:32:13.556Z,54.70
2019-02-09T10:37:09.878Z,55.60
2019-02-09T10:42:03.695Z,55.10
2019-02-09T10:46:59.807Z,54.70
2019-02-09T10:51:55.351Z,54.30
2019-02-09T10:56:49.678Z,53.70
2019-02-09T11:01:44.796Z,54.00
2019-02-09T11:06:40.846Z,53.90
2019-02-09T11:11:43.798Z,52.50
2019-02-09T11:16:37.702Z,52.10
2019-02-09T11:21:33.029Z,52.50
2019-02-09T11:26:28.132Z,53.10
2019-02-09T11:31:26.055Z,53.90
2019-02-09T11:36:21.263Z,53.20
2019-02-09T11:41:15.663Z,54.20
2019-02-09T11:46:11.370Z,55.80
2019-02-09T11:51:06.562Z,56.70
2019-02-09T11:56:01.169Z,57.10
2019-02-09T12:00:55.626Z,59.30
2019-02-09T12:05:49.721Z,63.40
2019-02-09T12:10:43.983Z,71.60
2019-02-09T12:15:38.903Z,76.70
2019-02-09T12:20:34.251Z,82.80
2019-02-09T12:25:36.911Z,90.20
2019-02-09T12:30:34.454Z,92.70
2019-02-09T12:35:29.929Z,94.50
2019-02-09T12:40:34.453Z,94.30
2019-02-09T12:45:37.289Z,95.50
2019-02-09T12:50:33.564Z,96.90
2019-02-09T12:55:30.633Z,97.60
2019-02-09T13:00:27.167Z,98.00
2019-02-09T13:05:21.673Z,98.50
2019-02-09T13:10:23.040Z,98.10
2019-02-09T13:15:34.942Z,98.10
2019-02-09T13:20:26.779Z,97.90
2019-02-09T13:25:22.276Z,99.00
2019-02-09T13:30:21.442Z,99.70
2019-02-09T13:35:16.299Z,99.60
2019-02-09T13:40:18.418Z,99.50
2019-02-09T13:45:21.939Z,99.50
2019-02-09T13:50:19.310Z,99.30
2019-02-09T13:55:15.032Z,99.90
2019-02-09T14:00:14.759Z,99.90
2019-02-09T14:05:12.070Z,99.90
2019-02-09T14:10:11.827Z,99.90
2019-02-09T14:15:11.072Z,99.90
2019-02-09T14:20:15.081Z,99.90
2019-02-09T14:25:15.094Z,99.90
2019-02-09T14:30:17.386Z,99.90
2019-02-09T14:35:12.421Z,99.90
2019-02-09T14:40:11.343Z,99.90
2019-02-09T14:45:11.603Z,99.90
2019-02-09T14:50:11.254Z,99.90
2019-02-09T14:55:07.560Z,99.90
2019-02-09T15:00:00.391Z,99.90
2019-02-09T15:04:57.195Z,99.90
2019-02-09T15:09:52.039Z,99.90
2019-02-09T15:14:46.494Z,99.90
2019-02-09T15:19:44.992Z,99.90
2019-02-09T15:24:39.290Z,99.90
2019-02-09T15:29:33.839Z,99.90
2019-02-09T15:34:28.931Z,99.90
2019-02-09T15:39:26.051Z,99.90
2019-02-09T15:44:20.227Z,99.90
2019-02-09T15:54:08.427Z,99.90
2019-02-09T15:59:02.838Z,99.90
2019-02-09T16:03:56.934Z,99.90
2019-02-09T16:08:51.467Z,99.90
2019-02-09T16:13:51.862Z,99.90
2019-02-09T16:18:45.804Z,99.90
2019-02-09T16:23:39.795Z,99.90
2019-02-09T16:28:34.106Z,99.90
2019-02-09T16:33:30.006Z,99.90
2019-02-09T16:38:25.414Z,99.90
2019-02-09T16:43:20.143Z,99.90
2019-02-09T16:48:14.227Z,99.90
2019-02-09T16:53:08.970Z,99.90
2019-02-09T16:58:05.110Z,99.90
2019-02-09T17:02:59.371Z,99.90
2019-02-09T17:07:58.570Z,99.90
2019-02-09T17:12:52.731Z,99.90
2019-02-09T17:17:46.851Z,99.90
2019-02-09T17:22:45.650Z,99.90
2019-02-09T17:27:40.900Z,99.90
2019-02-09T17:32:34.957Z,99.90
2019-02-09T17:37:29.179Z,99.90
2019-02-09T17:42:24.966Z,99.90
2019-02-09T17:47:18.910Z,99.90
2019-02-09T17:52:14.561Z,99.90
2019-02-09T17:57:08.990Z,99.90
2019-02-09T18:02:04.071Z,99.90
2019-02-09T18:07:00.221Z,99.90
2019-02-09T18:11:55.905Z,99.90
2019-02-09T18:16:49.858Z,99.90
2019-02-09T18:21:45.148Z,99.90
2019-02-09T18:26:43.034Z,99.90
2019-02-09T18:31:38.072Z,99.90
2019-02-09T18:36:32.373Z,99.90
2019-02-09T18:41:27.256Z,99.90
2019-02-09T18:46:24.684Z,99.90
2019-02-09T18:51:18.522Z,99.90
2019-02-09T18:56:17.475Z,99.90
2019-02-09T19:01:11.850Z,99.90
2019-02-09T19:06:09.123Z,99.90
2019-02-09T19:11:05.244Z,99.90
2019-02-09T19:15:59.294Z,99.90
2019-02-09T19:20:56.628Z,99.90
2019-02-09T19:25:51.290Z,99.90
2019-02-09T19:30:46.596Z,99.90
2019-02-09T19:35:41.967Z,99.90
2019-02-09T19:40:36.522Z,99.90
2019-02-09T19:45:38.510Z,99.90
2019-02-09T19:50:36.403Z,99.90
2019-02-09T19:55:31.907Z,99.90
2019-02-09T20:00:32.384Z,99.90
2019-02-09T20:05:26.958Z,99.90
2019-02-09T20:10:30.103Z,99.90
2019-02-09T20:15:28.075Z,99.90
2019-02-09T20:20:22.937Z,99.90
2019-02-09T20:25:19.428Z,99.90
2019-02-09T20:30:24.568Z,99.90
2019-02-09T20:35:27.527Z,99.90
2019-02-09T20:40:34.820Z,99.90
2019-02-09T20:45:31.142Z,99.90
2019-02-09T20:50:26.513Z,99.90
2019-02-09T20:55:21.191Z,99.90
2019-02-09T21:00:27.744Z,99.90
2019-02-09T21:05:25.125Z,99.90
2019-02-09T21:10:26.831Z,99.90
2019-02-09T21:15:23.145Z,99.90
2019-02-09T21:20:17.699Z,99.90
2019-02-09T21:25:16.806Z,99.90
2019-02-09T21:30:18.038Z,99.90
2019-02-09T21:35:13.934Z,99.90
2019-02-09T21:40:10.877Z,99.90
2019-02-09T21:45:10.960Z,99.90
2019-02-09T21:50:10.634Z,99.90
2019-02-09T21:55:09.793Z,99.90
2019-02-09T22:00:10.322Z,99.90
2019-02-09T22:05:07.963Z,99.90
2019-02-09T22:10:08.348Z,99.90
2019-02-09T22:15:06.336Z,99.90
2019-02-09T22:20:00.478Z,99.90
2019-02-09T22:24:57.651Z,99.90
2019-02-09T22:29:54.191Z,99.90
2019-02-09T22:34:52.202Z,99.90
2019-02-09T22:39:46.473Z,99.90
2019-02-09T22:44:43.008Z,99.90
2019-02-09T22:49:39.296Z,99.90
2019-02-09T22:54:33.426Z,99.90
2019-02-09T22:59:27.726Z,99.90
2019-02-09T23:04:28.789Z,99.90
2019-02-09T23:09:22.913Z,99.90
2019-02-09T23:14:18.488Z,99.90
2019-02-09T23:19:15.676Z,99.90
2019-02-09T23:24:09.776Z,99.90
2019-02-09T23:29:08.372Z,99.90
2019-02-09T23:34:02.669Z,99.90
2019-02-09T23:38:56.557Z,99.90
2019-02-09T23:43:51.270Z,99.90
2019-02-09T23:48:47.046Z,99.90
2019-02-09T23:53:44.893Z,99.90
2019-02-09T23:58:38.777Z,99.90
